createdAt,value
2022-08-23T00:01:25.457Z,22.48
2022-08-23T00:03:55.340Z,22.47
2022-08-23T00:06:23.884Z,22.40
2022-08-23T00:08:52.598Z,22.50
2022-08-23T00:11:51.017Z,22.40
2022-08-23T00:14:29.750Z,22.50
2022-08-23T00:16:58.222Z,22.36
2022-08-23T00:19:25.923Z,22.44
2022-08-23T00:21:54.879Z,22.44
2022-08-23T00:24:24.068Z,22.37
2022-08-23T00:27:05.189Z,22.39
2022-08-23T00:29:39.204Z,22.44
2022-08-23T00:32:08.871Z,22.35
2022-08-23T00:34:37.202Z,22.41
2022-08-23T00:37:05.891Z,22.45
2022-08-23T00:39:33.239Z,22.42
2022-08-23T00:42:31.151Z,22.35
2022-08-23T00:45:19.512Z,22.38
2022-08-23T00:47:47.197Z,22.31
2022-08-23T00:50:45.937Z,22.42
2022-08-23T00:53:22.970Z,22.43
2022-08-23T00:55:52.831Z,22.35
2022-08-23T00:58:21.265Z,22.40
2022-08-23T01:00:50.524Z,22.39
2022-08-23T01:03:19.516Z,22.40
2022-08-23T01:06:17.548Z,22.14
2022-08-23T01:08:52.828Z,22.22
2022-08-23T01:11:25.364Z,22.16
2022-08-23T01:14:00.402Z,22.15
2022-08-23T01:16:33.671Z,22.18
2022-08-23T01:19:03.636Z,22.23
2022-08-23T01:21:47.316Z,22.29
2022-08-23T01:24:19.122Z,22.26
2022-08-23T01:27:04.044Z,22.09
2022-08-23T01:29:31.473Z,22.24
2022-08-23T01:32:00.777Z,22.20
2022-08-23T01:34:29.281Z,22.22
2022-08-23T01:36:59.819Z,22.25
2022-08-23T01:39:27.271Z,22.27
2022-08-23T01:41:55.168Z,22.32
2022-08-23T01:44:22.804Z,22.24
2022-08-23T01:46:58.070Z,22.20
2022-08-23T01:49:25.550Z,22.17
2022-08-23T01:51:53.119Z,22.29
2022-08-23T01:54:21.224Z,22.32
2022-08-23T01:56:49.206Z,22.30
2022-08-23T01:59:16.860Z,22.31
2022-08-23T02:01:44.925Z,22.17
2022-08-23T02:04:12.665Z,22.17
2022-08-23T02:06:40.163Z,22.25
2022-08-23T02:09:15.965Z,22.29
2022-08-23T02:11:45.755Z,22.19
2022-08-23T02:14:19.665Z,22.24
2022-08-23T02:17:02.993Z,22.30
2022-08-23T02:19:34.315Z,22.30
2022-08-23T02:22:03.515Z,22.31
2022-08-23T02:24:31.805Z,22.38
2022-08-23T02:27:02.943Z,22.30
2022-08-23T02:29:30.934Z,22.31
2022-08-23T02:31:59.957Z,22.27
2022-08-23T02:34:28.732Z,22.17
2022-08-23T02:36:56.738Z,22.27
2022-08-23T02:39:24.631Z,22.34
2022-08-23T02:41:51.971Z,22.30
2022-08-23T02:44:20.223Z,22.34
2022-08-23T02:46:47.899Z,22.39
2022-08-23T02:49:17.009Z,22.48
2022-08-23T02:51:45.703Z,22.44
2022-08-23T02:54:13.277Z,22.33
2022-08-23T02:56:41.058Z,22.42
2022-08-23T02:59:08.845Z,22.33
2022-08-23T03:01:38.990Z,22.30
2022-08-23T03:04:09.823Z,22.31
2022-08-23T03:06:38.309Z,22.41
2022-08-23T03:09:07.402Z,22.38
2022-08-23T03:11:35.069Z,22.39
2022-08-23T03:14:02.751Z,22.43
2022-08-23T03:16:30.248Z,22.50
2022-08-23T03:18:57.696Z,22.47
2022-08-23T03:21:25.408Z,22.48
2022-08-23T03:23:52.870Z,22.48
2022-08-23T03:26:21.296Z,22.50
2022-08-23T03:28:48.891Z,22.47
2022-08-23T03:31:17.256Z,22.52
2022-08-23T03:33:45.486Z,22.57
2022-08-23T03:36:13.360Z,22.52
2022-08-23T03:38:41.550Z,22.53
2022-08-23T03:41:10.095Z,22.52
2022-08-23T03:43:38.091Z,22.58
2022-08-23T03:46:06.539Z,22.46
2022-08-23T03:48:34.568Z,22.51
2022-08-23T03:51:02.607Z,22.59
2022-08-23T03:53:30.411Z,22.50
2022-08-23T03:55:58.057Z,22.51
2022-08-23T03:58:25.920Z,22.50
2022-08-23T04:00:53.627Z,22.51
2022-08-23T04:03:21.419Z,22.61
2022-08-23T04:05:50.385Z,22.63
2022-08-23T04:08:26.996Z,22.54
2022-08-23T04:11:02.588Z,22.54
2022-08-23T04:13:30.094Z,22.68
2022-08-23T04:15:58.296Z,22.45
2022-08-23T04:18:25.963Z,22.46
2022-08-23T04:20:53.515Z,22.48
2022-08-23T04:23:21.256Z,22.34
2022-08-23T04:25:49.283Z,22.40
2022-08-23T04:28:17.410Z,22.39
2022-08-23T04:30:45.737Z,22.51
2022-08-23T04:33:17.831Z,22.40
2022-08-23T04:35:46.242Z,22.40
2022-08-23T04:38:24.247Z,22.45
2022-08-23T04:41:12.293Z,22.33
2022-08-23T04:43:40.638Z,22.46
2022-08-23T04:46:09.836Z,22.40
2022-08-23T04:48:37.500Z,22.34
2022-08-23T04:51:05.906Z,22.42
2022-08-23T04:53:35.287Z,22.38
2022-08-23T04:56:04.406Z,22.41
2022-08-23T04:58:33.125Z,22.35
2022-08-23T05:01:03.364Z,22.47
2022-08-23T05:03:32.079Z,22.54
2022-08-23T05:06:00.894Z,22.54
2022-08-23T05:08:28.846Z,22.57
2022-08-23T05:10:59.964Z,22.48
2022-08-23T05:13:27.464Z,22.49
2022-08-23T05:15:55.324Z,22.53
2022-08-23T05:18:25.335Z,22.52
2022-08-23T05:20:54.732Z,22.56
2022-08-23T05:23:32.082Z,22.57
2022-08-23T05:26:00.997Z,22.51
2022-08-23T05:28:31.884Z,22.62
2022-08-23T05:31:11.363Z,22.62
2022-08-23T05:33:41.723Z,22.71
2022-08-23T05:36:11.375Z,22.69
2022-08-23T05:38:39.995Z,22.65
2022-08-23T05:41:08.902Z,22.76
2022-08-23T05:43:36.829Z,22.73
2022-08-23T05:46:12.808Z,22.78
2022-08-23T05:48:46.958Z,22.79
2022-08-23T05:51:22.454Z,22.81
2022-08-23T05:53:51.658Z,22.72
2022-08-23T05:56:41.402Z,22.66
2022-08-23T05:59:12.477Z,22.90
2022-08-23T06:01:40.597Z,22.99
2022-08-23T06:04:11.347Z,22.99
2022-08-23T06:06:41.582Z,23.05
2022-08-23T06:09:11.657Z,23.02
2022-08-23T06:11:39.229Z,23.04
2022-08-23T06:14:08.936Z,23.04
2022-08-23T06:16:40.704Z,23.17
2022-08-23T06:19:09.475Z,23.17
2022-08-23T06:21:39.334Z,23.14
2022-08-23T06:24:07.230Z,23.25
2022-08-23T06:26:38.725Z,23.23
2022-08-23T06:29:09.708Z,23.27
2022-08-23T06:31:45.492Z,23.17
2022-08-23T06:34:18.537Z,23.16
2022-08-23T06:36:58.040Z,23.31
2022-08-23T06:39:29.771Z,23.21
2022-08-23T06:42:10.136Z,23.25
2022-08-23T06:44:45.391Z,23.33
2022-08-23T06:47:14.199Z,23.36
2022-08-23T06:49:41.804Z,23.27
2022-08-23T06:52:27.510Z,23.23
2022-08-23T06:59:50.869Z,23.26
2022-08-23T07:02:19.663Z,23.34
2022-08-23T07:04:53.827Z,23.27
2022-08-23T07:07:22.490Z,23.37
2022-08-23T07:09:50.209Z,23.33
2022-08-23T07:12:19.817Z,23.44
2022-08-23T07:14:47.292Z,23.64
2022-08-23T07:17:15.593Z,23.67
2022-08-23T07:19:44.159Z,23.70
2022-08-23T07:22:11.981Z,23.67
2022-08-23T07:24:39.865Z,23.55
2022-08-23T07:27:09.514Z,23.77
2022-08-23T07:29:39.659Z,23.92
2022-08-23T07:32:08.028Z,24.14
2022-08-23T07:34:35.956Z,24.15
2022-08-23T07:37:04.421Z,24.41
2022-08-23T07:39:40.903Z,24.48
2022-08-23T07:42:23.496Z,24.47
2022-08-23T07:44:53.231Z,24.51
2022-08-23T07:47:21.941Z,24.68
2022-08-23T07:49:49.558Z,24.74
2022-08-23T07:52:18.502Z,24.82
2022-08-23T07:54:48.604Z,24.64
2022-08-23T07:57:19.903Z,24.82
2022-08-23T07:59:48.556Z,24.97
2022-08-23T08:02:16.389Z,24.98
2022-08-23T08:04:45.138Z,25.16
2022-08-23T08:07:21.160Z,25.07
2022-08-23T08:09:49.348Z,25.27
2022-08-23T08:12:17.732Z,25.31
2022-08-23T08:14:48.344Z,25.35
2022-08-23T08:17:18.268Z,25.52
2022-08-23T08:19:46.258Z,25.54
2022-08-23T08:22:18.046Z,25.57
2022-08-23T08:24:47.004Z,25.92
2022-08-23T08:27:14.562Z,25.96
2022-08-23T08:29:43.819Z,25.99
2022-08-23T08:32:13.690Z,26.14
2022-08-23T08:34:42.186Z,26.49
2022-08-23T08:37:10.254Z,26.73
2022-08-23T08:39:45.344Z,26.86
2022-08-23T08:42:25.430Z,27.07
2022-08-23T08:44:57.892Z,27.11
2022-08-23T08:47:42.189Z,27.33
2022-08-23T08:50:17.892Z,27.42
2022-08-23T08:52:49.596Z,27.52
2022-08-23T08:55:20.128Z,27.58
2022-08-23T08:57:48.991Z,27.67
2022-08-23T09:00:23.913Z,27.81
2022-08-23T09:02:52.026Z,28.06
2022-08-23T09:05:31.441Z,28.27
2022-08-23T09:08:05.143Z,28.29
2022-08-23T09:10:58.215Z,28.51
2022-08-23T09:13:46.349Z,28.54
2022-08-23T09:16:36.574Z,28.61
2022-08-23T09:19:04.737Z,28.69
2022-08-23T09:22:00.819Z,28.90
2022-08-23T09:24:30.079Z,28.85
2022-08-23T09:26:58.726Z,28.80
2022-08-23T09:29:32.066Z,28.96
2022-08-23T09:32:02.377Z,28.96
2022-08-23T09:34:30.278Z,28.95
2022-08-23T09:37:22.143Z,28.73
2022-08-23T09:39:52.911Z,28.62
2022-08-23T09:42:27.224Z,28.45
2022-08-23T09:44:56.324Z,28.38
2022-08-23T09:47:44.000Z,28.34
2022-08-23T09:50:36.135Z,28.30
2022-08-23T09:53:07.849Z,28.26
2022-08-23T09:56:15.462Z,28.27
2022-08-23T09:58:46.860Z,28.28
2022-08-23T10:01:20.459Z,28.18
2022-08-23T10:04:07.141Z,28.17
2022-08-23T10:06:34.613Z,28.30
2022-08-23T10:09:05.543Z,28.45
2022-08-23T10:11:40.739Z,28.45
2022-08-23T10:14:09.792Z,28.60
2022-08-23T10:16:57.682Z,28.56
2022-08-23T10:19:38.519Z,28.61
2022-08-23T10:22:26.257Z,28.62
2022-08-23T10:25:06.096Z,28.56
2022-08-23T10:28:21.679Z,28.58
2022-08-23T10:30:52.533Z,28.38
2022-08-23T10:33:25.123Z,28.39
2022-08-23T10:36:03.474Z,28.28
2022-08-23T10:39:00.287Z,28.16
2022-08-23T10:41:34.866Z,28.06
2022-08-23T10:44:24.159Z,27.90
2022-08-23T10:47:01.808Z,27.93
2022-08-23T10:49:30.572Z,27.89
2022-08-23T10:52:04.941Z,27.95
2022-08-23T10:54:59.390Z,27.94
2022-08-23T10:57:39.136Z,27.87
2022-08-23T11:00:09.664Z,27.99
2022-08-23T11:02:57.685Z,27.92
2022-08-23T11:05:33.519Z,27.96
2022-08-23T11:08:06.055Z,28.05
2022-08-23T11:10:39.771Z,28.01
2022-08-23T11:13:13.222Z,27.97
2022-08-23T11:15:47.573Z,27.93
2022-08-23T11:18:33.869Z,28.02
2022-08-23T11:21:40.665Z,28.08
2022-08-23T11:24:08.940Z,28.04
2022-08-23T11:26:41.247Z,28.18
2022-08-23T11:29:12.409Z,28.21
2022-08-23T11:31:47.313Z,28.23
2022-08-23T11:34:35.645Z,28.12
2022-08-23T11:37:18.481Z,28.20
2022-08-23T11:39:58.780Z,27.94
2022-08-23T11:42:29.599Z,27.63
2022-08-23T11:44:57.619Z,27.77
2022-08-23T11:47:40.251Z,27.53
2022-08-23T11:50:38.456Z,27.81
2022-08-23T11:53:16.956Z,27.88
2022-08-23T11:56:04.869Z,27.84
2022-08-23T11:59:03.478Z,28.05
2022-08-23T12:01:38.854Z,28.10
2022-08-23T12:04:14.649Z,28.08
2022-08-23T12:06:56.047Z,28.14
2022-08-23T12:09:23.591Z,28.13
2022-08-23T12:11:57.068Z,28.27
2022-08-23T12:14:30.833Z,28.21
2022-08-23T12:17:26.112Z,28.27
2022-08-23T12:19:59.118Z,28.33
2022-08-23T12:22:34.683Z,28.40
2022-08-23T12:25:06.002Z,28.36
2022-08-23T12:27:41.608Z,28.63
2022-08-23T12:30:20.625Z,28.75
2022-08-23T12:32:57.605Z,28.77
2022-08-23T12:35:34.688Z,28.84
2022-08-23T12:38:10.752Z,28.91
2022-08-23T12:40:42.570Z,28.89
2022-08-23T12:43:17.360Z,28.87
2022-08-23T12:45:55.551Z,28.77
2022-08-23T12:48:25.714Z,28.75
2022-08-23T12:51:00.278Z,28.64
2022-08-23T12:53:45.145Z,28.68
2022-08-23T12:56:31.855Z,28.55
2022-08-23T12:59:02.392Z,28.59
2022-08-23T13:01:37.226Z,28.54
2022-08-23T13:04:13.221Z,28.43
2022-08-23T13:06:45.485Z,28.39
2022-08-23T13:09:17.589Z,28.04
2022-08-23T13:11:45.942Z,27.87
2022-08-23T13:14:34.377Z,27.73
2022-08-23T13:17:26.658Z,27.65
2022-08-23T13:20:12.421Z,27.53
2022-08-23T13:22:56.246Z,27.28
2022-08-23T13:25:31.938Z,27.38
2022-08-23T13:28:03.630Z,27.29
2022-08-23T13:30:38.446Z,27.21
2022-08-23T13:33:07.883Z,27.35
2022-08-23T13:35:43.591Z,27.19
2022-08-23T13:43:05.172Z,27.60
2022-08-23T13:45:49.752Z,27.60
2022-08-23T13:48:21.151Z,27.38
2022-08-23T13:50:48.778Z,27.58
2022-08-23T13:53:16.722Z,27.69
2022-08-23T13:55:55.781Z,27.80
2022-08-23T13:58:29.656Z,27.81
2022-08-23T14:00:58.877Z,27.82
2022-08-23T14:03:28.620Z,27.93
2022-08-23T14:05:56.022Z,27.86
2022-08-23T14:08:23.671Z,27.74
2022-08-23T14:10:51.539Z,27.59
2022-08-23T14:13:19.291Z,27.62
2022-08-23T14:18:34.812Z,27.63
2022-08-23T14:21:03.973Z,27.56
2022-08-23T14:23:31.612Z,27.57
2022-08-23T14:25:59.407Z,27.55
2022-08-23T14:28:29.714Z,27.60
2022-08-23T14:30:57.637Z,27.56
2022-08-23T14:33:25.419Z,27.66
2022-08-23T14:35:53.015Z,27.66
2022-08-23T14:38:20.536Z,27.56
2022-08-23T14:40:58.980Z,27.42
2022-08-23T14:43:27.455Z,27.47
2022-08-23T14:45:55.662Z,27.40
2022-08-23T14:48:25.224Z,27.34
2022-08-23T14:50:52.861Z,27.38
2022-08-23T14:53:24.969Z,27.29
2022-08-23T14:56:07.084Z,27.25
2022-08-23T14:58:41.876Z,27.10
2022-08-23T15:01:09.988Z,27.07
2022-08-23T15:03:37.717Z,27.23
2022-08-23T15:06:05.396Z,27.16
2022-08-23T15:08:32.731Z,27.27
2022-08-23T15:13:55.656Z,27.27
2022-08-23T15:16:24.914Z,27.22
2022-08-23T15:18:53.471Z,27.27
2022-08-23T15:21:21.319Z,27.29
2022-08-23T15:23:48.788Z,27.15
2022-08-23T15:26:20.620Z,27.17
2022-08-23T15:28:48.036Z,26.89
2022-08-23T15:31:17.266Z,26.93
2022-08-23T15:33:44.923Z,26.90
2022-08-23T15:36:13.544Z,27.00
2022-08-23T15:38:44.844Z,27.14
2022-08-23T15:41:12.282Z,26.95
2022-08-23T15:43:40.243Z,27.08
2022-08-23T15:46:11.129Z,26.96
2022-08-23T15:48:48.709Z,26.87
2022-08-23T15:51:17.870Z,26.87
2022-08-23T15:53:45.651Z,26.84
2022-08-23T15:56:16.858Z,26.82
2022-08-23T15:58:44.537Z,26.60
2022-08-23T16:01:12.189Z,26.87
2022-08-23T16:03:42.380Z,26.84
2022-08-23T16:06:12.252Z,26.94
2022-08-23T16:08:42.316Z,26.85
2022-08-23T16:11:13.196Z,26.63
2022-08-23T16:13:43.112Z,26.66
2022-08-23T16:16:20.750Z,26.76
2022-08-23T16:18:49.196Z,26.62
2022-08-23T16:21:17.522Z,26.46
2022-08-23T16:23:45.103Z,26.57
2022-08-23T16:26:16.701Z,26.57
2022-08-23T16:28:50.987Z,26.48
2022-08-23T16:31:18.975Z,26.24
2022-08-23T16:33:47.879Z,26.19
2022-08-23T16:36:19.611Z,26.24
2022-08-23T16:38:49.628Z,26.33
2022-08-23T16:41:17.287Z,26.11
2022-08-23T16:43:44.591Z,26.32
2022-08-23T16:46:12.391Z,26.17
2022-08-23T16:48:39.752Z,26.20
2022-08-23T16:51:07.113Z,26.07
2022-08-23T16:53:34.880Z,26.15
2022-08-23T16:56:02.461Z,25.87
2022-08-23T16:58:29.900Z,26.01
2022-08-23T17:00:57.605Z,26.05
2022-08-23T17:03:27.211Z,25.97
2022-08-23T17:05:55.165Z,25.87
2022-08-23T17:08:22.870Z,25.90
2022-08-23T17:10:50.479Z,25.91
2022-08-23T17:13:18.619Z,25.78
2022-08-23T17:15:46.236Z,25.61
2022-08-23T17:18:13.572Z,25.63
2022-08-23T17:20:40.988Z,25.78
2022-08-23T17:23:08.947Z,25.71
2022-08-23T17:25:36.478Z,25.73
2022-08-23T17:28:05.099Z,25.46
2022-08-23T17:30:32.675Z,25.42
2022-08-23T17:33:00.708Z,25.49
2022-08-23T17:35:33.994Z,25.21
2022-08-23T17:38:04.311Z,25.39
2022-08-23T17:40:37.819Z,25.21
2022-08-23T17:43:05.971Z,25.23
2022-08-23T17:45:40.138Z,25.34
2022-08-23T17:48:07.834Z,25.39
2022-08-23T17:50:35.225Z,25.29
2022-08-23T17:53:02.957Z,25.28
2022-08-23T17:55:36.089Z,25.24
2022-08-23T17:58:04.929Z,25.23
2022-08-23T18:00:34.184Z,25.28
2022-08-23T18:03:02.034Z,25.11
2022-08-23T18:05:30.226Z,25.21
2022-08-23T18:07:57.567Z,25.06
2022-08-23T18:10:25.369Z,25.14
2022-08-23T18:12:52.707Z,25.20
2022-08-23T18:15:20.420Z,25.21
2022-08-23T18:17:48.029Z,25.20
2022-08-23T18:20:16.532Z,25.11
2022-08-23T18:22:43.960Z,25.08
2022-08-23T18:25:13.373Z,25.01
2022-08-23T18:27:59.470Z,25.03
2022-08-23T18:30:27.184Z,25.04
2022-08-23T18:32:54.912Z,24.99
2022-08-23T18:35:22.429Z,25.01
2022-08-23T18:37:51.482Z,25.02
2022-08-23T18:40:18.993Z,24.92
2022-08-23T18:42:46.784Z,24.78
2022-08-23T18:45:14.528Z,24.75
2022-08-23T18:47:41.940Z,24.75
2022-08-23T18:50:11.001Z,24.66
2022-08-23T18:52:39.058Z,24.68
2022-08-23T18:55:06.960Z,24.55
2022-08-23T18:57:34.276Z,24.33
2022-08-23T19:00:02.316Z,24.20
2022-08-23T19:02:29.764Z,24.40
2022-08-23T19:04:57.303Z,24.50
2022-08-23T19:07:24.903Z,24.51
2022-08-23T19:09:52.260Z,24.33
2022-08-23T19:12:19.603Z,24.26
2022-08-23T19:14:47.229Z,24.24
2022-08-23T19:17:14.665Z,24.34
2022-08-23T19:19:42.069Z,24.25
2022-08-23T19:22:09.652Z,24.13
2022-08-23T19:24:37.253Z,24.23
2022-08-23T19:27:05.158Z,24.16
2022-08-23T19:29:33.064Z,23.99
2022-08-23T19:32:00.962Z,23.87
2022-08-23T19:34:28.520Z,24.02
2022-08-23T19:37:01.025Z,24.08
2022-08-23T19:39:29.606Z,24.12
2022-08-23T19:41:57.703Z,24.23
2022-08-23T19:44:25.039Z,24.12
2022-08-23T19:46:52.667Z,24.06
2022-08-23T19:49:20.313Z,24.14
2022-08-23T19:51:47.658Z,24.05
2022-08-23T19:54:15.038Z,24.06
2022-08-23T19:56:57.545Z,23.88
2022-08-23T19:59:28.554Z,23.96
2022-08-23T20:01:58.666Z,24.01
2022-08-23T20:04:29.012Z,23.86
2022-08-23T20:06:57.706Z,23.88
2022-08-23T20:09:26.636Z,23.77
2022-08-23T20:11:54.243Z,23.73
2022-08-23T20:14:22.848Z,23.53
2022-08-23T20:16:50.843Z,23.63
2022-08-23T20:19:18.623Z,23.75
2022-08-23T20:21:46.300Z,23.70
2022-08-23T20:24:14.435Z,23.75
2022-08-23T20:26:45.165Z,23.68
2022-08-23T20:29:16.847Z,23.55
2022-08-23T20:31:49.430Z,23.64
2022-08-23T20:34:17.170Z,23.67
2022-08-23T20:36:45.854Z,23.54
2022-08-23T20:39:13.301Z,23.46
2022-08-23T20:41:41.116Z,23.19
2022-08-23T20:44:09.305Z,23.17
2022-08-23T20:46:36.899Z,23.31
2022-08-23T20:49:05.140Z,23.23
2022-08-23T20:51:34.848Z,23.31
2022-08-23T20:54:06.359Z,23.29
2022-08-23T20:56:34.528Z,23.30
2022-08-23T20:59:01.967Z,23.28
2022-08-23T21:01:29.320Z,23.16
2022-08-23T21:03:56.996Z,23.20
2022-08-23T21:06:30.105Z,23.19
2022-08-23T21:09:00.000Z,23.12
2022-08-23T21:11:28.719Z,23.14
2022-08-23T21:13:57.356Z,23.07
2022-08-23T21:16:25.743Z,23.13
2022-08-23T21:18:55.435Z,22.99
2022-08-23T21:21:24.422Z,22.96
2022-08-23T21:23:52.448Z,23.05
2022-08-23T21:26:21.917Z,23.15
2022-08-23T21:28:50.528Z,23.12
2022-08-23T21:31:23.832Z,23.02
2022-08-23T21:33:51.808Z,22.97
2022-08-23T21:36:20.558Z,22.98
2022-08-23T21:38:48.255Z,23.04
2022-08-23T21:41:32.468Z,22.94
2022-08-23T21:44:00.239Z,23.04
2022-08-23T21:46:27.638Z,23.06
2022-08-23T21:48:55.156Z,23.19
2022-08-23T21:51:22.901Z,23.23
2022-08-23T21:53:50.311Z,23.14
2022-08-23T21:56:19.130Z,23.10
2022-08-23T21:58:47.385Z,23.12
2022-08-23T22:01:18.620Z,23.15
2022-08-23T22:03:46.391Z,23.19
2022-08-23T22:06:15.574Z,23.03
2022-08-23T22:08:43.676Z,22.93
2022-08-23T22:11:12.699Z,23.02
2022-08-23T22:13:41.034Z,22.94
2022-08-23T22:16:09.020Z,22.81
2022-08-23T22:18:36.799Z,22.93
2022-08-23T22:21:04.527Z,22.83
2022-08-23T22:23:32.468Z,22.95
2022-08-23T22:26:05.500Z,22.86
2022-08-23T22:28:33.395Z,22.89
2022-08-23T22:31:02.184Z,22.79
2022-08-23T22:33:29.849Z,22.65
2022-08-23T22:36:10.744Z,22.69
2022-08-23T22:38:39.033Z,22.76
2022-08-23T22:41:06.471Z,22.71
2022-08-23T22:43:33.879Z,22.59
2022-08-23T22:46:03.374Z,22.44
2022-08-23T22:48:32.191Z,22.51
2022-08-23T22:51:27.615Z,22.56
2022-08-23T22:53:58.179Z,22.66
2022-08-23T22:56:30.093Z,22.39
2022-08-23T22:58:57.759Z,22.47
2022-08-23T23:01:26.816Z,22.47
2022-08-23T23:03:56.250Z,22.54
2022-08-23T23:06:24.223Z,22.56
2022-08-23T23:08:52.398Z,22.54
2022-08-23T23:11:21.146Z,22.46
2022-08-23T23:13:49.416Z,22.41
2022-08-23T23:16:22.745Z,22.57
2022-08-23T23:19:09.082Z,22.63
2022-08-23T23:21:42.788Z,22.62
2022-08-23T23:24:12.197Z,22.55
2022-08-23T23:26:39.731Z,22.62
2022-08-23T23:29:07.623Z,22.65
2022-08-23T23:31:36.332Z,22.68
2022-08-23T23:34:04.575Z,22.73
2022-08-23T23:36:32.095Z,22.74
2022-08-23T23:38:59.764Z,22.72
2022-08-23T23:41:27.353Z,22.78
2022-08-23T23:43:54.738Z,22.77
2022-08-23T23:46:23.408Z,22.76
2022-08-23T23:48:51.246Z,22.40
2022-08-23T23:51:29.685Z,22.47
2022-08-23T23:53:59.248Z,22.53
2022-08-23T23:56:29.883Z,22.51
2022-08-23T23:58:58.657Z,22.53
